sensor_id;sensor_type;location;lat;lon;timestamp;P1;durP1;ratioP1;P2;durP2;ratioP2
57191;SDS011;43052;52.588;13.396;2022-11-06T00:02:16;46.88;;;34.47;;
57191;SDS011;43052;52.588;13.396;2022-11-06T00:04:41;47.00;;;37.08;;
57191;SDS011;43052;52.588;13.396;2022-11-06T00:07:06;48.63;;;37.63;;
57191;SDS011;43052;52.588;13.396;2022-11-06T00:09:32;50.35;;;35.72;;
57191;SDS011;43052;52.588;13.396;2022-11-06T00:11:58;48.05;;;37.40;;
57191;SDS011;43052;52.588;13.396;2022-11-06T00:14:23;49.58;;;38.10;;
57191;SDS011;43052;52.588;13.396;2022-11-06T00:16:48;44.30;;;36.95;;
57191;SDS011;43052;52.588;13.396;2022-11-06T00:19:14;47.15;;;38.78;;
57191;SDS011;43052;52.588;13.396;2022-11-06T00:21:40;48.50;;;38.53;;
57191;SDS011;43052;52.588;13.396;2022-11-06T00:24:06;43.10;;;34.10;;
57191;SDS011;43052;52.588;13.396;2022-11-06T00:26:32;46.85;;;36.88;;
57191;SDS011;43052;52.588;13.396;2022-11-06T00:28:58;41.15;;;33.35;;
57191;SDS011;43052;52.588;13.396;2022-11-06T00:31:28;30.50;;;23.10;;
57191;SDS011;43052;52.588;13.396;2022-11-06T00:33:55;28.20;;;22.15;;
57191;SDS011;43052;52.588;13.396;2022-11-06T00:36:22;27.00;;;19.40;;
57191;SDS011;43052;52.588;13.396;2022-11-06T00:38:51;27.27;;;19.63;;
57191;SDS011;43052;52.588;13.396;2022-11-06T00:41:18;25.92;;;18.77;;
57191;SDS011;43052;52.588;13.396;2022-11-06T00:43:47;22.80;;;16.08;;
57191;SDS011;43052;52.588;13.396;2022-11-06T00:46:14;22.33;;;14.02;;
57191;SDS011;43052;52.588;13.396;2022-11-06T00:48:40;24.10;;;13.52;;
57191;SDS011;43052;52.588;13.396;2022-11-06T00:51:13;19.70;;;11.88;;
57191;SDS011;43052;52.588;13.396;2022-11-06T00:53:41;18.25;;;12.38;;
57191;SDS011;43052;52.588;13.396;2022-11-06T00:56:08;18.83;;;10.85;;
57191;SDS011;43052;52.588;13.396;2022-11-06T00:58:35;21.90;;;12.73;;
57191;SDS011;43052;52.588;13.396;2022-11-06T01:01:05;19.73;;;15.15;;
57191;SDS011;43052;52.588;13.396;2022-11-06T01:03:32;27.30;;;15.88;;
57191;SDS011;43052;52.588;13.396;2022-11-06T01:08:54;23.05;;;13.48;;
57191;SDS011;43052;52.588;13.396;2022-11-06T01:11:42;21.08;;;14.15;;
57191;SDS011;43052;52.588;13.396;2022-11-06T01:14:07;25.95;;;13.40;;
57191;SDS011;43052;52.588;13.396;2022-11-06T01:16:34;20.20;;;13.20;;
57191;SDS011;43052;52.588;13.396;2022-11-06T01:19:00;20.13;;;13.23;;
57191;SDS011;43052;52.588;13.396;2022-11-06T01:21:27;20.00;;;13.25;;
57191;SDS011;43052;52.588;13.396;2022-11-06T01:23:56;17.50;;;11.40;;
57191;SDS011;43052;52.588;13.396;2022-11-06T01:26:23;17.30;;;10.20;;
57191;SDS011;43052;52.588;13.396;2022-11-06T01:28:50;17.40;;;10.73;;
57191;SDS011;43052;52.588;13.396;2022-11-06T01:31:17;17.17;;;9.85;;
57191;SDS011;43052;52.588;13.396;2022-11-06T01:33:44;17.10;;;11.02;;
57191;SDS011;43052;52.588;13.396;2022-11-06T01:36:10;16.88;;;10.80;;
57191;SDS011;43052;52.588;13.396;2022-11-06T01:38:40;17.83;;;10.73;;
57191;SDS011;43052;52.588;13.396;2022-11-06T01:41:07;17.15;;;10.80;;
57191;SDS011;43052;52.588;13.396;2022-11-06T01:43:43;19.23;;;13.13;;
57191;SDS011;43052;52.588;13.396;2022-11-06T01:46:24;17.45;;;11.52;;
57191;SDS011;43052;52.588;13.396;2022-11-06T01:48:56;21.48;;;14.10;;
57191;SDS011;43052;52.588;13.396;2022-11-06T01:51:28;21.55;;;12.82;;
57191;SDS011;43052;52.588;13.396;2022-11-06T01:54:04;18.67;;;12.23;;
57191;SDS011;43052;52.588;13.396;2022-11-06T01:56:31;16.25;;;10.50;;
57191;SDS011;43052;52.588;13.396;2022-11-06T01:58:56;16.02;;;10.57;;
57191;SDS011;43052;52.588;13.396;2022-11-06T02:01:22;18.83;;;11.52;;
57191;SDS011;43052;52.588;13.396;2022-11-06T02:03:49;15.48;;;11.57;;
57191;SDS011;43052;52.588;13.396;2022-11-06T02:06:23;20.08;;;10.00;;
57191;SDS011;43052;52.588;13.396;2022-11-06T02:08:49;17.05;;;9.95;;
57191;SDS011;43052;52.588;13.396;2022-11-06T02:11:15;20.45;;;9.93;;
57191;SDS011;43052;52.588;13.396;2022-11-06T02:16:20;17.35;;;10.75;;
57191;SDS011;43052;52.588;13.396;2022-11-06T02:18:52;16.42;;;11.45;;
57191;SDS011;43052;52.588;13.396;2022-11-06T02:21:33;17.00;;;10.85;;
57191;SDS011;43052;52.588;13.396;2022-11-06T02:24:40;15.70;;;9.63;;
57191;SDS011;43052;52.588;13.396;2022-11-06T02:27:19;16.65;;;10.48;;
57191;SDS011;43052;52.588;13.396;2022-11-06T02:29:49;15.68;;;9.43;;
57191;SDS011;43052;52.588;13.396;2022-11-06T02:32:28;17.85;;;11.02;;
57191;SDS011;43052;52.588;13.396;2022-11-06T02:34:59;15.38;;;9.25;;
57191;SDS011;43052;52.588;13.396;2022-11-06T02:37:31;15.82;;;10.40;;
57191;SDS011;43052;52.588;13.396;2022-11-06T02:40:02;19.58;;;11.93;;
57191;SDS011;43052;52.588;13.396;2022-11-06T02:42:31;15.93;;;10.93;;
57191;SDS011;43052;52.588;13.396;2022-11-06T02:45:01;15.82;;;10.15;;
57191;SDS011;43052;52.588;13.396;2022-11-06T02:47:30;17.15;;;10.38;;
57191;SDS011;43052;52.588;13.396;2022-11-06T02:50:02;20.02;;;12.00;;
57191;SDS011;43052;52.588;13.396;2022-11-06T02:52:36;22.00;;;14.90;;
57191;SDS011;43052;52.588;13.396;2022-11-06T02:55:07;19.80;;;12.73;;
57191;SDS011;43052;52.588;13.396;2022-11-06T02:57:37;19.20;;;12.00;;
57191;SDS011;43052;52.588;13.396;2022-11-06T03:00:11;17.25;;;11.52;;
57191;SDS011;43052;52.588;13.396;2022-11-06T03:02:44;17.92;;;11.52;;
57191;SDS011;43052;52.588;13.396;2022-11-06T03:05:16;16.20;;;11.05;;
57191;SDS011;43052;52.588;13.396;2022-11-06T03:08:01;18.27;;;10.45;;
57191;SDS011;43052;52.588;13.396;2022-11-06T03:10:51;18.73;;;10.88;;
57191;SDS011;43052;52.588;13.396;2022-11-06T03:13:28;18.65;;;12.27;;
57191;SDS011;43052;52.588;13.396;2022-11-06T03:19:10;18.02;;;10.93;;
57191;SDS011;43052;52.588;13.396;2022-11-06T03:21:57;16.23;;;10.32;;
57191;SDS011;43052;52.588;13.396;2022-11-06T03:26:58;17.33;;;10.23;;
57191;SDS011;43052;52.588;13.396;2022-11-06T03:29:35;17.13;;;9.25;;
57191;SDS011;43052;52.588;13.396;2022-11-06T03:32:07;16.75;;;9.65;;
57191;SDS011;43052;52.588;13.396;2022-11-06T03:34:49;15.38;;;10.25;;
57191;SDS011;43052;52.588;13.396;2022-11-06T03:37:21;18.20;;;9.90;;
57191;SDS011;43052;52.588;13.396;2022-11-06T03:39:54;16.13;;;10.45;;
57191;SDS011;43052;52.588;13.396;2022-11-06T03:42:27;14.50;;;9.68;;
57191;SDS011;43052;52.588;13.396;2022-11-06T03:44:55;15.55;;;10.07;;
57191;SDS011;43052;52.588;13.396;2022-11-06T03:47:28;16.60;;;10.43;;
57191;SDS011;43052;52.588;13.396;2022-11-06T03:50:10;15.50;;;9.77;;
57191;SDS011;43052;52.588;13.396;2022-11-06T03:52:42;15.30;;;10.27;;
57191;SDS011;43052;52.588;13.396;2022-11-06T03:55:14;18.58;;;9.57;;
57191;SDS011;43052;52.588;13.396;2022-11-06T03:58:00;16.30;;;10.32;;
57191;SDS011;43052;52.588;13.396;2022-11-06T04:00:29;18.45;;;10.88;;
57191;SDS011;43052;52.588;13.396;2022-11-06T04:02:58;17.08;;;10.35;;
57191;SDS011;43052;52.588;13.396;2022-11-06T04:05:28;16.23;;;9.68;;
57191;SDS011;43052;52.588;13.396;2022-11-06T04:07:58;17.52;;;10.18;;
57191;SDS011;43052;52.588;13.396;2022-11-06T04:10:43;17.70;;;9.67;;
57191;SDS011;43052;52.588;13.396;2022-11-06T04:13:31;18.42;;;10.48;;
57191;SDS011;43052;52.588;13.396;2022-11-06T04:16:16;17.88;;;10.90;;
57191;SDS011;43052;52.588;13.396;2022-11-06T04:18:42;19.23;;;10.55;;
57191;SDS011;43052;52.588;13.396;2022-11-06T04:27:13;19.48;;;11.00;;
57191;SDS011;43052;52.588;13.396;2022-11-06T04:29:52;18.25;;;11.13;;
57191;SDS011;43052;52.588;13.396;2022-11-06T04:35:12;19.58;;;11.48;;
57191;SDS011;43052;52.588;13.396;2022-11-06T04:37:55;17.83;;;10.82;;
57191;SDS011;43052;52.588;13.396;2022-11-06T04:42:59;19.88;;;11.25;;
57191;SDS011;43052;52.588;13.396;2022-11-06T04:45:28;17.60;;;10.27;;
57191;SDS011;43052;52.588;13.396;2022-11-06T04:47:58;16.48;;;9.70;;
57191;SDS011;43052;52.588;13.396;2022-11-06T04:50:24;14.70;;;11.07;;
57191;SDS011;43052;52.588;13.396;2022-11-06T04:52:53;18.15;;;10.43;;
57191;SDS011;43052;52.588;13.396;2022-11-06T04:55:20;18.75;;;10.98;;
57191;SDS011;43052;52.588;13.396;2022-11-06T04:57:46;16.75;;;10.88;;
57191;SDS011;43052;52.588;13.396;2022-11-06T05:00:12;18.50;;;12.05;;
57191;SDS011;43052;52.588;13.396;2022-11-06T05:02:38;19.48;;;11.60;;
57191;SDS011;43052;52.588;13.396;2022-11-06T05:05:03;20.15;;;11.95;;
57191;SDS011;43052;52.588;13.396;2022-11-06T05:07:29;20.85;;;12.23;;
57191;SDS011;43052;52.588;13.396;2022-11-06T05:09:54;21.27;;;11.63;;
57191;SDS011;43052;52.588;13.396;2022-11-06T05:12:20;19.85;;;11.20;;
57191;SDS011;43052;52.588;13.396;2022-11-06T05:14:45;16.10;;;11.20;;
57191;SDS011;43052;52.588;13.396;2022-11-06T05:17:10;19.02;;;11.52;;
57191;SDS011;43052;52.588;13.396;2022-11-06T05:19:36;17.65;;;11.40;;
57191;SDS011;43052;52.588;13.396;2022-11-06T05:22:01;19.23;;;11.35;;
57191;SDS011;43052;52.588;13.396;2022-11-06T05:24:45;17.30;;;11.82;;
57191;SDS011;43052;52.588;13.396;2022-11-06T05:27:10;15.40;;;10.45;;
57191;SDS011;43052;52.588;13.396;2022-11-06T05:29:35;19.15;;;11.93;;
57191;SDS011;43052;52.588;13.396;2022-11-06T05:32:00;19.45;;;11.68;;
57191;SDS011;43052;52.588;13.396;2022-11-06T05:34:26;19.05;;;11.93;;
57191;SDS011;43052;52.588;13.396;2022-11-06T05:36:51;18.25;;;11.02;;
57191;SDS011;43052;52.588;13.396;2022-11-06T05:39:16;19.00;;;11.35;;
57191;SDS011;43052;52.588;13.396;2022-11-06T05:41:41;19.67;;;13.15;;
57191;SDS011;43052;52.588;13.396;2022-11-06T05:44:07;18.75;;;14.15;;
57191;SDS011;43052;52.588;13.396;2022-11-06T05:46:32;20.60;;;13.98;;
57191;SDS011;43052;52.588;13.396;2022-11-06T05:48:57;21.08;;;12.93;;
57191;SDS011;43052;52.588;13.396;2022-11-06T05:51:22;19.23;;;10.85;;
57191;SDS011;43052;52.588;13.396;2022-11-06T05:53:48;18.95;;;11.63;;
57191;SDS011;43052;52.588;13.396;2022-11-06T05:56:13;19.30;;;11.63;;
57191;SDS011;43052;52.588;13.396;2022-11-06T05:58:38;18.25;;;12.48;;
57191;SDS011;43052;52.588;13.396;2022-11-06T06:01:03;19.15;;;12.38;;
57191;SDS011;43052;52.588;13.396;2022-11-06T06:03:29;18.05;;;12.25;;
57191;SDS011;43052;52.588;13.396;2022-11-06T06:05:54;20.48;;;11.30;;
57191;SDS011;43052;52.588;13.396;2022-11-06T06:08:19;22.08;;;11.82;;
57191;SDS011;43052;52.588;13.396;2022-11-06T06:10:45;25.10;;;14.43;;
57191;SDS011;43052;52.588;13.396;2022-11-06T06:13:11;24.58;;;14.18;;
57191;SDS011;43052;52.588;13.396;2022-11-06T06:15:38;23.30;;;12.65;;
57191;SDS011;43052;52.588;13.396;2022-11-06T06:18:04;21.20;;;13.75;;
57191;SDS011;43052;52.588;13.396;2022-11-06T06:20:29;22.95;;;12.95;;
57191;SDS011;43052;52.588;13.396;2022-11-06T06:22:55;19.88;;;12.73;;
57191;SDS011;43052;52.588;13.396;2022-11-06T06:25:21;23.25;;;14.18;;
57191;SDS011;43052;52.588;13.396;2022-11-06T06:27:46;18.10;;;12.00;;
57191;SDS011;43052;52.588;13.396;2022-11-06T06:30:12;18.85;;;12.30;;
57191;SDS011;43052;52.588;13.396;2022-11-06T06:32:37;22.65;;;12.93;;
57191;SDS011;43052;52.588;13.396;2022-11-06T06:35:03;18.20;;;11.93;;
57191;SDS011;43052;52.588;13.396;2022-11-06T06:37:28;16.38;;;11.07;;
57191;SDS011;43052;52.588;13.396;2022-11-06T06:39:53;23.02;;;13.13;;
57191;SDS011;43052;52.588;13.396;2022-11-06T06:42:18;17.70;;;10.75;;
57191;SDS011;43052;52.588;13.396;2022-11-06T06:44:44;18.15;;;11.27;;
57191;SDS011;43052;52.588;13.396;2022-11-06T06:47:09;15.02;;;9.77;;
57191;SDS011;43052;52.588;13.396;2022-11-06T06:49:34;13.23;;;8.77;;
57191;SDS011;43052;52.588;13.396;2022-11-06T06:52:00;12.02;;;8.40;;
57191;SDS011;43052;52.588;13.396;2022-11-06T06:54:25;14.02;;;7.90;;
57191;SDS011;43052;52.588;13.396;2022-11-06T06:56:51;11.35;;;8.02;;
57191;SDS011;43052;52.588;13.396;2022-11-06T06:59:16;10.80;;;7.55;;
57191;SDS011;43052;52.588;13.396;2022-11-06T07:01:41;10.85;;;6.97;;
57191;SDS011;43052;52.588;13.396;2022-11-06T07:04:07;10.93;;;6.18;;
57191;SDS011;43052;52.588;13.396;2022-11-06T07:06:34;10.63;;;7.00;;
57191;SDS011;43052;52.588;13.396;2022-11-06T07:08:59;11.63;;;7.03;;
57191;SDS011;43052;52.588;13.396;2022-11-06T07:11:24;11.07;;;6.93;;
57191;SDS011;43052;52.588;13.396;2022-11-06T07:13:49;13.88;;;7.10;;
57191;SDS011;43052;52.588;13.396;2022-11-06T07:16:15;9.57;;;6.18;;
57191;SDS011;43052;52.588;13.396;2022-11-06T07:18:41;8.00;;;6.00;;
57191;SDS011;43052;52.588;13.396;2022-11-06T07:21:07;10.00;;;6.22;;
57191;SDS011;43052;52.588;13.396;2022-11-06T07:23:34;10.32;;;6.97;;
57191;SDS011;43052;52.588;13.396;2022-11-06T07:26:00;11.00;;;6.80;;
57191;SDS011;43052;52.588;13.396;2022-11-06T07:28:26;9.68;;;7.05;;
57191;SDS011;43052;52.588;13.396;2022-11-06T07:30:51;10.45;;;6.93;;
57191;SDS011;43052;52.588;13.396;2022-11-06T07:33:16;10.63;;;7.07;;
57191;SDS011;43052;52.588;13.396;2022-11-06T07:35:42;9.27;;;6.57;;
57191;SDS011;43052;52.588;13.396;2022-11-06T07:38:07;9.82;;;6.55;;
57191;SDS011;43052;52.588;13.396;2022-11-06T07:40:32;9.15;;;6.00;;
57191;SDS011;43052;52.588;13.396;2022-11-06T07:43:02;7.38;;;5.97;;
57191;SDS011;43052;52.588;13.396;2022-11-06T07:45:28;8.27;;;6.30;;
57191;SDS011;43052;52.588;13.396;2022-11-06T07:47:55;9.07;;;6.82;;
57191;SDS011;43052;52.588;13.396;2022-11-06T07:50:20;8.63;;;6.63;;
57191;SDS011;43052;52.588;13.396;2022-11-06T07:52:46;8.02;;;6.30;;
57191;SDS011;43052;52.588;13.396;2022-11-06T07:55:11;8.73;;;6.85;;
57191;SDS011;43052;52.588;13.396;2022-11-06T07:57:36;7.25;;;5.93;;
57191;SDS011;43052;52.588;13.396;2022-11-06T08:00:02;7.22;;;6.40;;
57191;SDS011;43052;52.588;13.396;2022-11-06T08:02:28;10.43;;;6.60;;
57191;SDS011;43052;52.588;13.396;2022-11-06T08:04:54;8.02;;;6.30;;
57191;SDS011;43052;52.588;13.396;2022-11-06T08:07:19;10.15;;;7.70;;
57191;SDS011;43052;52.588;13.396;2022-11-06T08:09:44;7.90;;;6.30;;
57191;SDS011;43052;52.588;13.396;2022-11-06T08:12:09;10.32;;;7.90;;
57191;SDS011;43052;52.588;13.396;2022-11-06T08:14:35;11.38;;;7.30;;
57191;SDS011;43052;52.588;13.396;2022-11-06T08:17:00;7.63;;;6.15;;
57191;SDS011;43052;52.588;13.396;2022-11-06T08:19:25;9.20;;;6.78;;
57191;SDS011;43052;52.588;13.396;2022-11-06T08:21:50;7.68;;;6.38;;
57191;SDS011;43052;52.588;13.396;2022-11-06T08:24:16;8.07;;;6.13;;
57191;SDS011;43052;52.588;13.396;2022-11-06T08:26:41;9.15;;;6.45;;
57191;SDS011;43052;52.588;13.396;2022-11-06T08:29:06;6.95;;;6.18;;
57191;SDS011;43052;52.588;13.396;2022-11-06T08:31:31;8.23;;;6.63;;
57191;SDS011;43052;52.588;13.396;2022-11-06T08:33:57;8.48;;;6.32;;
57191;SDS011;43052;52.588;13.396;2022-11-06T08:36:22;8.43;;;6.18;;
57191;SDS011;43052;52.588;13.396;2022-11-06T08:38:47;10.60;;;7.07;;
57191;SDS011;43052;52.588;13.396;2022-11-06T08:41:12;8.82;;;6.18;;
57191;SDS011;43052;52.588;13.396;2022-11-06T08:43:38;8.20;;;6.47;;
57191;SDS011;43052;52.588;13.396;2022-11-06T08:46:04;8.32;;;6.45;;
57191;SDS011;43052;52.588;13.396;2022-11-06T08:48:31;9.75;;;6.70;;
57191;SDS011;43052;52.588;13.396;2022-11-06T08:50:56;12.23;;;6.65;;
57191;SDS011;43052;52.588;13.396;2022-11-06T08:53:22;8.77;;;7.18;;
57191;SDS011;43052;52.588;13.396;2022-11-06T08:55:47;8.68;;;6.75;;
57191;SDS011;43052;52.588;13.396;2022-11-06T08:58:13;7.80;;;6.35;;
57191;SDS011;43052;52.588;13.396;2022-11-06T09:00:38;8.05;;;6.13;;
57191;SDS011;43052;52.588;13.396;2022-11-06T09:03:05;8.80;;;6.07;;
57191;SDS011;43052;52.588;13.396;2022-11-06T09:05:33;8.98;;;6.15;;
57191;SDS011;43052;52.588;13.396;2022-11-06T09:07:59;7.50;;;5.88;;
57191;SDS011;43052;52.588;13.396;2022-11-06T09:10:25;7.90;;;6.22;;
57191;SDS011;43052;52.588;13.396;2022-11-06T09:12:51;9.30;;;6.35;;
57191;SDS011;43052;52.588;13.396;2022-11-06T09:15:16;7.72;;;6.00;;
57191;SDS011;43052;52.588;13.396;2022-11-06T09:17:44;7.45;;;6.22;;
57191;SDS011;43052;52.588;13.396;2022-11-06T09:20:11;7.88;;;6.47;;
57191;SDS011;43052;52.588;13.396;2022-11-06T09:22:37;7.40;;;6.13;;
57191;SDS011;43052;52.588;13.396;2022-11-06T09:25:03;7.25;;;5.75;;
57191;SDS011;43052;52.588;13.396;2022-11-06T09:27:30;7.45;;;5.90;;
57191;SDS011;43052;52.588;13.396;2022-11-06T09:29:55;7.65;;;6.85;;
57191;SDS011;43052;52.588;13.396;2022-11-06T09:32:20;7.60;;;6.05;;
57191;SDS011;43052;52.588;13.396;2022-11-06T09:34:46;7.35;;;5.95;;
57191;SDS011;43052;52.588;13.396;2022-11-06T09:37:11;6.93;;;5.72;;
57191;SDS011;43052;52.588;13.396;2022-11-06T09:39:36;7.07;;;5.70;;
57191;SDS011;43052;52.588;13.396;2022-11-06T09:42:07;6.70;;;5.77;;
57191;SDS011;43052;52.588;13.396;2022-11-06T09:45:05;8.55;;;5.80;;
57191;SDS011;43052;52.588;13.396;2022-11-06T09:47:36;6.80;;;5.88;;
57191;SDS011;43052;52.588;13.396;2022-11-06T09:50:05;7.97;;;6.15;;
57191;SDS011;43052;52.588;13.396;2022-11-06T09:52:41;9.05;;;5.70;;
57191;SDS011;43052;52.588;13.396;2022-11-06T09:55:23;6.30;;;5.68;;
57191;SDS011;43052;52.588;13.396;2022-11-06T09:58:04;6.90;;;5.82;;
57191;SDS011;43052;52.588;13.396;2022-11-06T10:00:39;7.57;;;5.85;;
57191;SDS011;43052;52.588;13.396;2022-11-06T10:03:10;7.53;;;5.13;;
57191;SDS011;43052;52.588;13.396;2022-11-06T10:05:40;6.90;;;5.57;;
57191;SDS011;43052;52.588;13.396;2022-11-06T10:08:19;6.13;;;5.53;;
57191;SDS011;43052;52.588;13.396;2022-11-06T10:10:53;7.43;;;5.88;;
57191;SDS011;43052;52.588;13.396;2022-11-06T10:21:47;7.32;;;5.60;;
57191;SDS011;43052;52.588;13.396;2022-11-06T10:24:19;7.70;;;5.50;;
57191;SDS011;43052;52.588;13.396;2022-11-06T10:26:53;6.72;;;5.53;;
57191;SDS011;43052;52.588;13.396;2022-11-06T10:34:24;6.82;;;5.40;;
57191;SDS011;43052;52.588;13.396;2022-11-06T10:36:58;7.68;;;5.20;;
57191;SDS011;43052;52.588;13.396;2022-11-06T10:39:32;6.82;;;5.07;;
57191;SDS011;43052;52.588;13.396;2022-11-06T10:42:01;7.30;;;5.10;;
57191;SDS011;43052;52.588;13.396;2022-11-06T10:44:44;6.55;;;4.70;;
57191;SDS011;43052;52.588;13.396;2022-11-06T10:47:18;8.25;;;4.82;;
57191;SDS011;43052;52.588;13.396;2022-11-06T10:49:47;6.90;;;4.78;;
57191;SDS011;43052;52.588;13.396;2022-11-06T10:52:31;6.68;;;5.10;;
57191;SDS011;43052;52.588;13.396;2022-11-06T10:55:19;7.63;;;5.22;;
57191;SDS011;43052;52.588;13.396;2022-11-06T10:58:02;8.48;;;5.63;;
57191;SDS011;43052;52.588;13.396;2022-11-06T11:00:33;8.95;;;4.97;;
57191;SDS011;43052;52.588;13.396;2022-11-06T11:03:04;8.13;;;4.97;;
57191;SDS011;43052;52.588;13.396;2022-11-06T11:05:34;8.40;;;5.15;;
57191;SDS011;43052;52.588;13.396;2022-11-06T11:08:06;7.60;;;5.35;;
57191;SDS011;43052;52.588;13.396;2022-11-06T11:13:43;7.55;;;5.40;;
57191;SDS011;43052;52.588;13.396;2022-11-06T11:16:11;9.35;;;5.25;;
57191;SDS011;43052;52.588;13.396;2022-11-06T11:18:40;9.05;;;5.43;;
57191;SDS011;43052;52.588;13.396;2022-11-06T11:21:09;10.73;;;6.05;;
57191;SDS011;43052;52.588;13.396;2022-11-06T11:23:41;8.95;;;6.13;;
57191;SDS011;43052;52.588;13.396;2022-11-06T11:26:16;9.13;;;5.45;;
57191;SDS011;43052;52.588;13.396;2022-11-06T11:31:27;10.57;;;5.93;;
57191;SDS011;43052;52.588;13.396;2022-11-06T11:33:55;8.50;;;5.47;;
57191;SDS011;43052;52.588;13.396;2022-11-06T11:36:23;8.40;;;5.90;;
57191;SDS011;43052;52.588;13.396;2022-11-06T11:38:48;8.38;;;5.65;;
57191;SDS011;43052;52.588;13.396;2022-11-06T11:44:05;12.63;;;5.60;;
57191;SDS011;43052;52.588;13.396;2022-11-06T11:46:31;8.77;;;5.90;;
57191;SDS011;43052;52.588;13.396;2022-11-06T11:49:00;10.73;;;5.03;;
57191;SDS011;43052;52.588;13.396;2022-11-06T11:51:28;10.82;;;6.07;;
57191;SDS011;43052;52.588;13.396;2022-11-06T11:56:42;11.05;;;5.63;;
57191;SDS011;43052;52.588;13.396;2022-11-06T11:59:14;9.20;;;5.40;;
57191;SDS011;43052;52.588;13.396;2022-11-06T12:01:43;10.13;;;5.82;;
57191;SDS011;43052;52.588;13.396;2022-11-06T12:04:20;8.80;;;5.50;;
57191;SDS011;43052;52.588;13.396;2022-11-06T12:06:52;9.25;;;5.43;;
57191;SDS011;43052;52.588;13.396;2022-11-06T12:09:20;9.75;;;6.25;;
57191;SDS011;43052;52.588;13.396;2022-11-06T12:11:46;8.15;;;5.18;;
57191;SDS011;43052;52.588;13.396;2022-11-06T12:14:15;8.27;;;4.72;;
57191;SDS011;43052;52.588;13.396;2022-11-06T12:16:59;9.07;;;4.88;;
57191;SDS011;43052;52.588;13.396;2022-11-06T12:19:30;7.97;;;4.97;;
57191;SDS011;43052;52.588;13.396;2022-11-06T12:22:00;8.77;;;5.55;;
57191;SDS011;43052;52.588;13.396;2022-11-06T12:24:48;8.38;;;5.40;;
57191;SDS011;43052;52.588;13.396;2022-11-06T12:27:20;6.75;;;4.90;;
57191;SDS011;43052;52.588;13.396;2022-11-06T12:29:50;8.15;;;4.70;;
57191;SDS011;43052;52.588;13.396;2022-11-06T12:32:22;7.68;;;4.72;;
57191;SDS011;43052;52.588;13.396;2022-11-06T12:40:40;7.20;;;4.57;;
57191;SDS011;43052;52.588;13.396;2022-11-06T12:43:47;7.03;;;4.30;;
57191;SDS011;43052;52.588;13.396;2022-11-06T12:57:04;7.88;;;4.50;;
57191;SDS011;43052;52.588;13.396;2022-11-06T13:02:39;7.20;;;5.07;;
57191;SDS011;43052;52.588;13.396;2022-11-06T13:10:56;6.55;;;4.45;;
57191;SDS011;43052;52.588;13.396;2022-11-06T13:16:28;7.15;;;4.40;;
57191;SDS011;43052;52.588;13.396;2022-11-06T13:19:03;8.32;;;4.47;;
57191;SDS011;43052;52.588;13.396;2022-11-06T13:24:17;7.78;;;4.55;;
57191;SDS011;43052;52.588;13.396;2022-11-06T13:29:23;6.63;;;3.80;;
57191;SDS011;43052;52.588;13.396;2022-11-06T13:31:51;7.80;;;4.32;;
57191;SDS011;43052;52.588;13.396;2022-11-06T13:34:22;7.57;;;3.95;;
57191;SDS011;43052;52.588;13.396;2022-11-06T13:36:50;7.20;;;4.00;;
57191;SDS011;43052;52.588;13.396;2022-11-06T13:39:36;6.20;;;4.15;;
57191;SDS011;43052;52.588;13.396;2022-11-06T13:42:08;7.10;;;3.97;;
57191;SDS011;43052;52.588;13.396;2022-11-06T13:44:50;6.97;;;3.75;;
57191;SDS011;43052;52.588;13.396;2022-11-06T13:47:23;8.00;;;4.30;;
57191;SDS011;43052;52.588;13.396;2022-11-06T13:49:59;7.78;;;4.05;;
57191;SDS011;43052;52.588;13.396;2022-11-06T13:55:58;8.15;;;4.03;;
57191;SDS011;43052;52.588;13.396;2022-11-06T14:04:25;8.63;;;4.28;;
57191;SDS011;43052;52.588;13.396;2022-11-06T14:07:11;8.02;;;4.05;;
57191;SDS011;43052;52.588;13.396;2022-11-06T14:09:39;5.45;;;3.67;;
57191;SDS011;43052;52.588;13.396;2022-11-06T14:12:11;5.93;;;3.92;;
57191;SDS011;43052;52.588;13.396;2022-11-06T14:14:41;7.53;;;4.03;;
57191;SDS011;43052;52.588;13.396;2022-11-06T14:17:18;5.75;;;4.05;;
57191;SDS011;43052;52.588;13.396;2022-11-06T14:30:36;6.15;;;4.18;;
57191;SDS011;43052;52.588;13.396;2022-11-06T14:33:08;10.13;;;4.63;;
57191;SDS011;43052;52.588;13.396;2022-11-06T14:40:34;8.05;;;4.47;;
57191;SDS011;43052;52.588;13.396;2022-11-06T14:45:54;9.18;;;4.30;;
57191;SDS011;43052;52.588;13.396;2022-11-06T14:48:32;5.90;;;4.20;;
57191;SDS011;43052;52.588;13.396;2022-11-06T14:51:05;5.88;;;4.32;;
57191;SDS011;43052;52.588;13.396;2022-11-06T14:53:33;6.32;;;4.20;;
57191;SDS011;43052;52.588;13.396;2022-11-06T14:56:08;5.95;;;4.20;;
57191;SDS011;43052;52.588;13.396;2022-11-06T14:58:35;7.30;;;4.53;;
57191;SDS011;43052;52.588;13.396;2022-11-06T15:06:20;5.45;;;3.67;;
57191;SDS011;43052;52.588;13.396;2022-11-06T15:11:52;5.93;;;3.85;;
57191;SDS011;43052;52.588;13.396;2022-11-06T15:16:46;7.97;;;4.33;;
57191;SDS011;43052;52.588;13.396;2022-11-06T15:19:19;8.13;;;4.63;;
57191;SDS011;43052;52.588;13.396;2022-11-06T15:24:50;5.97;;;4.22;;
57191;SDS011;43052;52.588;13.396;2022-11-06T15:27:21;6.70;;;4.25;;
57191;SDS011;43052;52.588;13.396;2022-11-06T15:29:51;9.80;;;4.53;;
57191;SDS011;43052;52.588;13.396;2022-11-06T15:32:20;8.73;;;5.00;;
57191;SDS011;43052;52.588;13.396;2022-11-06T15:34:54;7.38;;;4.30;;
57191;SDS011;43052;52.588;13.396;2022-11-06T15:37:28;7.72;;;5.10;;
57191;SDS011;43052;52.588;13.396;2022-11-06T15:39:56;8.93;;;5.75;;
57191;SDS011;43052;52.588;13.396;2022-11-06T15:42:23;11.13;;;6.78;;
57191;SDS011;43052;52.588;13.396;2022-11-06T15:44:51;9.23;;;5.15;;
57191;SDS011;43052;52.588;13.396;2022-11-06T15:47:29;8.43;;;5.13;;
57191;SDS011;43052;52.588;13.396;2022-11-06T15:52:46;8.95;;;5.57;;
57191;SDS011;43052;52.588;13.396;2022-11-06T15:55:23;7.85;;;4.93;;
57191;SDS011;43052;52.588;13.396;2022-11-06T15:57:48;8.40;;;5.43;;
57191;SDS011;43052;52.588;13.396;2022-11-06T16:02:57;10.25;;;5.47;;
57191;SDS011;43052;52.588;13.396;2022-11-06T16:05:24;9.37;;;5.07;;
57191;SDS011;43052;52.588;13.396;2022-11-06T16:07:51;11.27;;;5.88;;
57191;SDS011;43052;52.588;13.396;2022-11-06T16:10:20;8.85;;;5.90;;
57191;SDS011;43052;52.588;13.396;2022-11-06T16:12:47;10.93;;;6.10;;
57191;SDS011;43052;52.588;13.396;2022-11-06T16:18:20;9.40;;;6.30;;
57191;SDS011;43052;52.588;13.396;2022-11-06T16:21:20;11.10;;;6.13;;
57191;SDS011;43052;52.588;13.396;2022-11-06T16:23:50;11.73;;;6.50;;
57191;SDS011;43052;52.588;13.396;2022-11-06T16:26:20;8.52;;;5.78;;
57191;SDS011;43052;52.588;13.396;2022-11-06T16:28:52;10.88;;;5.97;;
57191;SDS011;43052;52.588;13.396;2022-11-06T16:31:20;8.75;;;6.40;;
57191;SDS011;43052;52.588;13.396;2022-11-06T16:34:04;8.18;;;6.55;;
57191;SDS011;43052;52.588;13.396;2022-11-06T16:36:48;9.80;;;5.80;;
57191;SDS011;43052;52.588;13.396;2022-11-06T16:39:30;8.43;;;5.90;;
57191;SDS011;43052;52.588;13.396;2022-11-06T16:44:46;11.05;;;7.30;;
57191;SDS011;43052;52.588;13.396;2022-11-06T16:47:20;9.30;;;7.85;;
57191;SDS011;43052;52.588;13.396;2022-11-06T16:49:47;8.70;;;6.50;;
57191;SDS011;43052;52.588;13.396;2022-11-06T16:52:19;10.40;;;7.20;;
57191;SDS011;43052;52.588;13.396;2022-11-06T16:57:14;9.75;;;5.95;;